createdAt,value
2018-11-23T00:01:49.683Z,54.23
2018-11-23T00:04:18.146Z,47.63
2018-11-23T00:06:46.581Z,43.63
2018-11-23T00:09:15.005Z,52.53
2018-11-23T00:11:43.419Z,50.83
2018-11-23T00:14:11.856Z,48.13
2018-11-23T00:16:40.435Z,51.87
2018-11-23T00:19:08.887Z,51.67
2018-11-23T00:21:37.291Z,54.40
2018-11-23T00:24:05.959Z,48.90
2018-11-23T00:26:34.385Z,47.87
2018-11-23T00:29:02.794Z,50.47
2018-11-23T00:31:31.232Z,48.20
2018-11-23T00:33:59.635Z,47.20
2018-11-23T00:36:28.076Z,52.40
2018-11-23T00:38:57.155Z,48.90
2018-11-23T00:41:25.574Z,53.63
2018-11-23T00:43:53.957Z,50.10
2018-11-23T00:46:22.394Z,53.97
2018-11-23T00:48:50.899Z,49.17
2018-11-23T00:51:19.281Z,53.60
2018-11-23T00:53:47.697Z,49.10
2018-11-23T00:56:16.085Z,50.20
2018-11-23T00:58:44.585Z,49.30
2018-11-23T01:01:13.003Z,54.50
2018-11-23T01:03:41.434Z,52.27
2018-11-23T01:06:09.813Z,52.20
2018-11-23T01:08:38.231Z,53.37
2018-11-23T01:11:06.666Z,57.00
2018-11-23T01:13:35.093Z,51.07
2018-11-23T01:16:03.505Z,56.90
2018-11-23T01:18:31.885Z,60.80
2018-11-23T01:21:02.182Z,55.17
2018-11-23T01:23:30.580Z,53.43
2018-11-23T01:25:59.018Z,62.17
2018-11-23T01:28:27.456Z,55.53
2018-11-23T01:30:55.834Z,53.23
2018-11-23T01:33:24.226Z,52.73
2018-11-23T01:35:52.642Z,53.60
2018-11-23T01:38:21.022Z,58.80
2018-11-23T01:40:49.452Z,51.33
2018-11-23T01:43:17.833Z,56.33
2018-11-23T01:45:46.213Z,53.73
2018-11-23T01:48:14.641Z,54.07
2018-11-23T01:50:43.030Z,52.13
2018-11-23T01:53:11.438Z,59.10
2018-11-23T01:55:39.822Z,57.03
2018-11-23T01:58:08.237Z,55.03
2018-11-23T02:00:36.689Z,51.77
2018-11-23T02:03:05.380Z,56.63
2018-11-23T02:05:33.796Z,59.67
2018-11-23T02:08:02.193Z,58.23
2018-11-23T02:10:30.701Z,62.00
2018-11-23T02:12:59.105Z,56.70
2018-11-23T02:15:27.507Z,57.53
2018-11-23T02:17:55.902Z,51.83
2018-11-23T02:20:24.277Z,58.80
2018-11-23T02:22:53.399Z,55.97
2018-11-23T02:25:21.890Z,54.87
2018-11-23T02:27:50.302Z,54.03
2018-11-23T02:30:21.109Z,57.20
2018-11-23T02:32:49.557Z,61.27
2018-11-23T02:35:18.274Z,60.90
2018-11-23T02:37:46.710Z,56.03
2018-11-23T02:40:17.283Z,57.33
2018-11-23T02:42:45.945Z,56.40
2018-11-23T02:45:19.687Z,57.07
2018-11-23T02:47:48.650Z,57.57
2018-11-23T02:50:17.082Z,54.47
2018-11-23T02:52:45.817Z,61.13
2018-11-23T02:55:15.358Z,60.93
2018-11-23T02:57:43.766Z,56.00
2018-11-23T03:00:15.804Z,58.67
2018-11-23T03:02:44.357Z,58.00
2018-11-23T03:05:18.705Z,54.20
2018-11-23T03:07:47.093Z,57.67
2018-11-23T03:10:16.200Z,60.40
2018-11-23T03:12:45.470Z,71.27
2018-11-23T03:15:15.503Z,56.60
2018-11-23T03:17:44.685Z,62.43
2018-11-23T03:20:21.169Z,58.77
2018-11-23T03:22:49.553Z,57.13
2018-11-23T03:25:17.979Z,56.37
2018-11-23T03:27:46.385Z,54.60
2018-11-23T03:30:18.916Z,55.87
2018-11-23T03:32:48.465Z,64.30
2018-11-23T03:35:17.414Z,57.37
2018-11-23T03:37:46.230Z,62.40
2018-11-23T03:40:14.624Z,56.07
2018-11-23T03:42:43.026Z,54.83
2018-11-23T03:45:12.802Z,56.57
2018-11-23T03:47:41.875Z,56.83
2018-11-23T03:50:11.590Z,58.40
2018-11-23T03:52:40.380Z,49.93
2018-11-23T03:55:08.801Z,50.77
2018-11-23T03:57:37.218Z,62.73
2018-11-23T04:00:17.084Z,61.80
2018-11-23T04:02:40.198Z,61.90
2018-11-23T04:05:08.914Z,57.57
2018-11-23T04:07:37.317Z,66.70
2018-11-23T04:10:07.260Z,59.23
2018-11-23T04:12:35.662Z,61.60
2018-11-23T04:15:04.137Z,54.83
2018-11-23T04:17:32.522Z,58.23
2018-11-23T04:20:00.947Z,58.77
2018-11-23T04:22:29.356Z,59.10
2018-11-23T04:24:57.801Z,57.33
2018-11-23T04:27:26.181Z,59.73
2018-11-23T04:29:54.569Z,56.40
2018-11-23T04:32:22.958Z,59.00
2018-11-23T04:34:51.359Z,65.90
2018-11-23T04:37:19.733Z,55.93
2018-11-23T04:39:48.113Z,59.17
2018-11-23T04:42:16.513Z,63.20
2018-11-23T04:44:44.901Z,55.30
2018-11-23T04:47:13.353Z,59.07
2018-11-23T04:49:41.750Z,60.07
2018-11-23T04:52:10.146Z,53.10
2018-11-23T04:54:38.533Z,55.50
2018-11-23T04:57:06.958Z,62.50
2018-11-23T04:59:35.369Z,56.70
2018-11-23T05:02:03.773Z,50.97
2018-11-23T05:04:32.218Z,51.97
2018-11-23T05:07:00.612Z,52.67
2018-11-23T05:09:28.996Z,62.37
2018-11-23T05:11:57.404Z,59.50
2018-11-23T05:14:25.800Z,56.43
2018-11-23T05:16:54.211Z,61.10
2018-11-23T05:19:22.608Z,53.50
2018-11-23T05:21:51.001Z,57.03
2018-11-23T05:24:19.953Z,52.87
2018-11-23T05:26:48.333Z,59.83
2018-11-23T05:29:16.737Z,58.20
2018-11-23T05:31:45.320Z,58.00
2018-11-23T05:34:13.720Z,56.20
2018-11-23T05:36:43.239Z,54.63
2018-11-23T05:39:11.892Z,59.33
2018-11-23T05:41:40.313Z,50.77
2018-11-23T05:44:08.773Z,57.40
2018-11-23T05:46:37.233Z,59.80
2018-11-23T05:49:05.982Z,57.73
2018-11-23T05:51:34.385Z,57.80
2018-11-23T05:54:02.872Z,61.00
2018-11-23T05:56:31.298Z,61.30
2018-11-23T05:58:59.690Z,60.27
2018-11-23T06:01:28.071Z,56.47
2018-11-23T06:03:56.482Z,64.20
2018-11-23T06:06:25.888Z,61.23
2018-11-23T06:08:53.314Z,60.27
2018-11-23T06:11:21.697Z,63.03
2018-11-23T06:13:50.156Z,62.13
2018-11-23T06:16:18.542Z,52.33
2018-11-23T06:18:47.873Z,57.00
2018-11-23T06:21:16.277Z,62.67
2018-11-23T06:23:44.676Z,62.27
2018-11-23T06:26:23.357Z,60.50
2018-11-23T06:28:51.945Z,55.57
2018-11-23T06:31:20.362Z,60.10
2018-11-23T06:33:49.393Z,63.27
2018-11-23T06:36:17.789Z,51.83
2018-11-23T06:38:46.213Z,61.10
2018-11-23T06:41:14.622Z,53.33
2018-11-23T06:43:43.013Z,49.93
2018-11-23T06:46:12.273Z,59.00
2018-11-23T06:48:40.682Z,59.13
2018-11-23T06:51:09.397Z,60.60
2018-11-23T06:53:38.082Z,56.27
2018-11-23T06:56:06.853Z,53.07
2018-11-23T06:58:35.332Z,54.30
2018-11-23T07:01:03.766Z,59.20
2018-11-23T07:03:32.317Z,51.23
2018-11-23T07:06:00.739Z,59.70
2018-11-23T07:08:29.160Z,55.63
2018-11-23T07:10:59.498Z,58.30
2018-11-23T07:13:28.989Z,65.00
2018-11-23T07:15:57.410Z,60.90
2018-11-23T07:18:25.872Z,62.87
2018-11-23T07:20:54.241Z,58.63
2018-11-23T07:23:22.693Z,60.10
2018-11-23T07:25:51.234Z,58.00
2018-11-23T07:28:19.646Z,53.60
2018-11-23T07:30:48.106Z,50.70
2018-11-23T07:33:16.656Z,53.73
2018-11-23T07:35:45.053Z,51.07
2018-11-23T07:38:13.458Z,51.50
2018-11-23T07:40:53.942Z,52.07
2018-11-23T07:43:22.360Z,46.80
2018-11-23T07:45:50.819Z,47.03
2018-11-23T07:48:19.194Z,48.53
2018-11-23T07:50:47.637Z,47.57
2018-11-23T07:53:16.022Z,52.87
2018-11-23T07:55:44.445Z,49.83
2018-11-23T07:58:12.879Z,46.53
2018-11-23T08:00:41.309Z,48.80
2018-11-23T08:03:09.707Z,46.60
2018-11-23T08:05:38.121Z,52.60
2018-11-23T08:08:06.931Z,44.87
2018-11-23T08:10:34.537Z,45.33
2018-11-23T08:13:02.997Z,44.20
2018-11-23T08:15:32.054Z,45.27
2018-11-23T08:18:00.576Z,45.43
2018-11-23T08:20:28.984Z,42.77
2018-11-23T08:22:57.434Z,41.20
2018-11-23T08:25:26.550Z,40.67
2018-11-23T08:27:56.161Z,41.50
2018-11-23T08:30:28.057Z,40.67
2018-11-23T08:32:56.945Z,48.03
2018-11-23T08:35:25.355Z,46.97
2018-11-23T08:37:53.757Z,48.67
2018-11-23T08:40:23.695Z,46.30
2018-11-23T08:42:52.686Z,43.30
2018-11-23T08:45:22.591Z,48.90
2018-11-23T08:47:51.137Z,43.80
2018-11-23T08:50:22.285Z,45.07
2018-11-23T08:52:51.520Z,46.47
2018-11-23T08:55:20.410Z,47.73
2018-11-23T08:57:48.893Z,41.20
2018-11-23T09:00:21.418Z,46.97
2018-11-23T09:02:51.161Z,46.50
2018-11-23T09:05:19.673Z,41.20
2018-11-23T09:07:49.255Z,41.57
2018-11-23T09:10:19.266Z,48.10
2018-11-23T09:12:49.566Z,42.67
2018-11-23T09:15:18.050Z,43.03
2018-11-23T09:17:46.644Z,44.10
2018-11-23T09:20:15.945Z,44.23
2018-11-23T09:22:44.390Z,48.53
2018-11-23T09:25:15.377Z,51.93
2018-11-23T09:27:43.777Z,46.80
2018-11-23T09:30:18.991Z,45.00
2018-11-23T09:32:48.041Z,44.33
2018-11-23T09:35:16.441Z,52.90
2018-11-23T09:37:45.254Z,45.43
2018-11-23T09:40:18.668Z,47.60
2018-11-23T09:42:47.442Z,43.67
2018-11-23T09:45:17.846Z,53.17
2018-11-23T09:47:47.253Z,53.37
2018-11-23T09:50:17.275Z,47.67
2018-11-23T09:52:46.617Z,45.83
2018-11-23T09:55:15.166Z,46.17
2018-11-23T09:57:43.851Z,47.67
2018-11-23T10:00:15.203Z,47.63
2018-11-23T10:02:44.280Z,46.83
2018-11-23T10:05:13.700Z,41.90
2018-11-23T10:07:43.386Z,43.70
2018-11-23T10:10:12.585Z,48.83
2018-11-23T10:12:41.481Z,50.30
2018-11-23T10:15:11.377Z,49.93
2018-11-23T10:17:39.994Z,48.30
2018-11-23T10:20:11.651Z,52.63
2018-11-23T10:22:40.086Z,47.73
2018-11-23T10:25:10.500Z,44.90
2018-11-23T10:27:39.427Z,46.87
2018-11-23T10:30:10.325Z,47.00
2018-11-23T10:32:38.749Z,43.03
2018-11-23T10:35:08.366Z,49.63
2018-11-23T10:37:37.139Z,49.33
2018-11-23T10:40:08.430Z,48.00
2018-11-23T10:42:37.694Z,46.17
2018-11-23T10:45:14.145Z,52.03
2018-11-23T10:47:42.622Z,47.63
2018-11-23T10:50:14.792Z,50.60
2018-11-23T10:52:43.374Z,50.57
2018-11-23T10:55:14.342Z,48.70
2018-11-23T10:57:42.793Z,45.60
2018-11-23T11:00:20.634Z,43.53
2018-11-23T11:02:54.969Z,44.20
2018-11-23T11:05:28.666Z,53.37
2018-11-23T11:07:58.509Z,48.17
2018-11-23T11:10:27.017Z,46.63
2018-11-23T11:12:55.433Z,44.50
2018-11-23T11:15:23.981Z,39.50
2018-11-23T11:17:52.457Z,37.13
2018-11-23T11:20:21.242Z,39.20
2018-11-23T11:22:49.821Z,39.03
2018-11-23T11:25:18.234Z,43.87
2018-11-23T11:27:46.653Z,39.80
2018-11-23T11:30:16.797Z,38.10
2018-11-23T11:32:45.790Z,38.03
2018-11-23T11:35:14.369Z,46.93
2018-11-23T11:37:43.873Z,46.67
2018-11-23T11:40:13.709Z,39.60
2018-11-23T11:42:42.701Z,41.90
2018-11-23T11:45:12.995Z,42.07
2018-11-23T11:47:42.130Z,53.43
2018-11-23T11:50:11.485Z,37.33
2018-11-23T11:52:41.314Z,39.30
2018-11-23T11:55:12.057Z,38.20
2018-11-23T11:57:40.496Z,43.00
2018-11-23T12:00:11.722Z,38.67
2018-11-23T12:02:40.321Z,49.73
2018-11-23T12:05:10.277Z,42.33
2018-11-23T12:07:38.729Z,44.90
2018-11-23T12:10:09.589Z,42.10
2018-11-23T12:12:38.297Z,39.67
2018-11-23T12:15:07.969Z,43.27
2018-11-23T12:17:36.370Z,42.53
2018-11-23T12:20:06.878Z,45.60
2018-11-23T12:22:35.265Z,44.03
2018-11-23T12:25:03.951Z,45.60
2018-11-23T12:27:32.484Z,40.93
2018-11-23T12:30:00.893Z,40.63
2018-11-23T12:32:29.509Z,40.80
2018-11-23T12:34:57.909Z,39.40
2018-11-23T12:37:26.349Z,36.93
2018-11-23T12:39:54.942Z,38.80
2018-11-23T12:42:23.527Z,34.97
2018-11-23T12:44:51.942Z,37.90
2018-11-23T12:47:20.569Z,41.97
2018-11-23T12:49:48.992Z,41.53
2018-11-23T12:52:17.441Z,36.50
2018-11-23T12:54:45.851Z,39.30
2018-11-23T12:57:14.390Z,38.93
2018-11-23T12:59:42.800Z,36.77
2018-11-23T13:02:11.224Z,38.10
2018-11-23T13:04:39.665Z,38.17
2018-11-23T13:07:08.738Z,39.27
2018-11-23T13:09:37.868Z,35.30
2018-11-23T13:12:06.313Z,40.47
2018-11-23T13:14:34.718Z,36.30
2018-11-23T13:17:03.142Z,34.93
2018-11-23T13:19:31.549Z,43.63
2018-11-23T13:21:59.943Z,37.73
2018-11-23T13:24:28.337Z,40.40
2018-11-23T13:26:56.745Z,37.83
2018-11-23T13:29:25.189Z,38.20
2018-11-23T13:31:53.609Z,33.50
2018-11-23T13:34:22.027Z,36.83
2018-11-23T13:36:50.445Z,34.33
2018-11-23T13:39:18.949Z,35.83
2018-11-23T13:41:47.415Z,40.17
2018-11-23T13:44:16.393Z,38.80
2018-11-23T13:46:44.797Z,41.17
2018-11-23T13:49:13.211Z,34.60
2018-11-23T13:51:41.682Z,36.27
2018-11-23T13:54:10.109Z,45.23
2018-11-23T13:56:38.557Z,41.87
2018-11-23T13:59:06.973Z,40.33
2018-11-23T14:01:35.463Z,36.63
2018-11-23T14:04:03.912Z,39.80
2018-11-23T14:06:32.487Z,34.60
2018-11-23T14:09:00.876Z,34.00
2018-11-23T14:11:29.278Z,37.27
2018-11-23T14:13:57.685Z,32.77
2018-11-23T14:16:26.089Z,39.90
2018-11-23T14:18:54.529Z,38.10
2018-11-23T14:21:23.050Z,35.63
2018-11-23T14:23:51.650Z,36.63
2018-11-23T14:26:20.061Z,34.37
2018-11-23T14:28:48.549Z,34.13
2018-11-23T14:31:17.002Z,32.53
2018-11-23T14:33:45.493Z,34.97
2018-11-23T14:36:13.953Z,35.33
2018-11-23T14:38:42.370Z,28.83
2018-11-23T14:41:10.810Z,29.63
2018-11-23T14:43:39.309Z,30.13
2018-11-23T14:46:07.766Z,32.97
2018-11-23T14:48:36.209Z,28.23
2018-11-23T14:51:04.867Z,28.80
2018-11-23T14:53:33.341Z,31.50
2018-11-23T14:56:01.778Z,31.63
2018-11-23T14:58:30.265Z,32.87
2018-11-23T15:00:58.693Z,31.03
2018-11-23T15:03:27.278Z,32.13
2018-11-23T15:05:55.706Z,31.60
2018-11-23T15:08:24.162Z,39.90
2018-11-23T15:10:52.724Z,27.73
2018-11-23T15:13:21.131Z,33.80
2018-11-23T15:15:49.585Z,31.50
2018-11-23T15:18:18.038Z,29.93
2018-11-23T15:20:47.360Z,29.37
2018-11-23T15:23:19.189Z,44.00
2018-11-23T15:25:47.612Z,30.57
2018-11-23T15:28:16.478Z,40.97
2018-11-23T15:30:46.104Z,32.60
2018-11-23T15:33:16.033Z,34.47
2018-11-23T15:35:45.321Z,37.60
2018-11-23T15:38:18.607Z,36.00
2018-11-23T15:40:47.407Z,34.67
2018-11-23T15:43:17.009Z,34.00
2018-11-23T15:45:45.458Z,32.90
2018-11-23T15:48:13.920Z,38.40
2018-11-23T15:50:43.059Z,39.57
2018-11-23T15:53:13.066Z,40.77
2018-11-23T15:55:41.938Z,38.67
2018-11-23T15:58:12.013Z,43.17
2018-11-23T16:00:42.969Z,34.03
2018-11-23T16:03:12.302Z,36.00
2018-11-23T16:05:40.873Z,40.33
2018-11-23T16:08:13.833Z,41.43
2018-11-23T16:10:42.279Z,34.83
2018-11-23T16:13:11.844Z,40.97
2018-11-23T16:15:40.286Z,32.30
2018-11-23T16:18:09.325Z,34.83
2018-11-23T16:20:39.981Z,40.60
2018-11-23T16:23:10.221Z,37.30
2018-11-23T16:25:38.992Z,39.17
2018-11-23T16:28:08.660Z,37.30
2018-11-23T16:30:38.596Z,38.70
2018-11-23T16:33:08.713Z,37.87
2018-11-23T16:35:38.275Z,42.47
2018-11-23T16:38:08.716Z,41.97
2018-11-23T16:40:39.797Z,42.70
2018-11-23T16:43:09.488Z,39.63
2018-11-23T16:45:38.670Z,35.57
2018-11-23T16:48:08.918Z,39.63
2018-11-23T16:50:37.405Z,36.33
2018-11-23T16:53:06.286Z,42.70
2018-11-23T16:55:35.125Z,43.40
2018-11-23T16:58:04.975Z,37.93
2018-11-23T17:00:34.781Z,35.00
2018-11-23T17:03:04.804Z,39.40
2018-11-23T17:05:35.123Z,43.93
2018-11-23T17:08:03.600Z,36.87
2018-11-23T17:10:32.082Z,42.03
2018-11-23T17:13:00.557Z,37.33
2018-11-23T17:15:29.598Z,41.03
2018-11-23T17:17:58.135Z,37.40
2018-11-23T17:20:28.063Z,46.93
2018-11-23T17:22:58.035Z,48.43
2018-11-23T17:25:27.274Z,55.03
2018-11-23T17:27:57.492Z,53.33
2018-11-23T17:30:28.053Z,54.30
2018-11-23T17:32:56.729Z,52.87
2018-11-23T17:35:25.718Z,54.43
2018-11-23T17:37:54.234Z,42.33
2018-11-23T17:40:23.901Z,45.53
2018-11-23T17:42:52.787Z,50.63
2018-11-23T17:45:23.818Z,42.10
2018-11-23T17:47:53.001Z,45.73
2018-11-23T17:50:25.073Z,46.70
2018-11-23T17:52:53.770Z,47.47
2018-11-23T17:55:22.266Z,48.60
2018-11-23T17:57:51.865Z,48.40
2018-11-23T18:00:22.012Z,55.87
2018-11-23T18:02:51.403Z,53.70
2018-11-23T18:05:20.895Z,62.17
2018-11-23T18:07:50.484Z,59.80
2018-11-23T18:10:21.244Z,57.97
2018-11-23T18:12:57.166Z,59.53
2018-11-23T18:15:27.736Z,59.80
2018-11-23T18:17:57.296Z,62.90
2018-11-23T18:20:27.403Z,71.70
2018-11-23T18:22:56.618Z,60.73
2018-11-23T18:25:29.614Z,59.57
2018-11-23T18:28:00.237Z,56.40
2018-11-23T18:30:30.117Z,61.20
2018-11-23T18:32:58.821Z,68.50
2018-11-23T18:35:27.325Z,62.47
2018-11-23T18:37:56.411Z,63.13
2018-11-23T18:40:24.986Z,58.23
2018-11-23T18:42:54.821Z,63.37
2018-11-23T18:45:23.351Z,65.73
2018-11-23T18:47:51.890Z,56.37
2018-11-23T18:50:20.392Z,63.30
2018-11-23T18:52:49.653Z,57.27
2018-11-23T18:55:18.515Z,57.03
2018-11-23T18:57:46.593Z,58.70
2018-11-23T19:00:16.136Z,60.17
2018-11-23T19:02:45.750Z,65.40
2018-11-23T19:05:22.542Z,57.20
2018-11-23T19:07:51.021Z,68.20
2018-11-23T19:10:19.497Z,61.33
2018-11-23T19:12:48.038Z,61.03
2018-11-23T19:15:25.136Z,60.33
2018-11-23T19:17:46.302Z,60.90
2018-11-23T19:20:16.973Z,63.63
2018-11-23T19:22:46.543Z,71.47
2018-11-23T19:25:15.022Z,73.63
2018-11-23T19:27:43.489Z,61.70
2018-11-23T19:30:14.281Z,66.93
2018-11-23T19:32:42.758Z,65.00
2018-11-23T19:35:11.201Z,66.27
2018-11-23T19:37:40.422Z,69.23
2018-11-23T19:40:12.221Z,61.77
2018-11-23T19:42:41.248Z,65.17
2018-11-23T19:45:11.995Z,66.40
2018-11-23T19:47:40.479Z,56.20
2018-11-23T19:50:11.647Z,61.10
2018-11-23T19:52:40.509Z,74.37
2018-11-23T19:55:09.926Z,62.10
2018-11-23T19:57:39.704Z,67.97
2018-11-23T20:00:17.018Z,71.20
2018-11-23T20:02:46.069Z,57.17
2018-11-23T20:05:14.573Z,60.03
2018-11-23T20:07:43.401Z,64.67
2018-11-23T20:10:15.121Z,66.00
2018-11-23T20:12:44.114Z,70.97
2018-11-23T20:15:14.886Z,59.97
2018-11-23T20:17:43.474Z,66.80
2018-11-23T20:20:13.215Z,64.13
2018-11-23T20:22:42.397Z,61.60
2018-11-23T20:25:14.948Z,62.47
2018-11-23T20:27:43.702Z,69.93
2018-11-23T20:30:16.227Z,64.60
2018-11-23T20:32:44.833Z,69.27
2018-11-23T20:35:14.572Z,57.27
2018-11-23T20:37:43.009Z,59.90
2018-11-23T20:40:21.418Z,63.73
2018-11-23T20:42:49.842Z,61.17
2018-11-23T20:45:18.347Z,56.40
2018-11-23T20:47:46.801Z,61.90
2018-11-23T20:50:16.418Z,54.87
2018-11-23T20:52:45.011Z,54.50
2018-11-23T20:55:17.481Z,52.20
2018-11-23T20:57:45.948Z,51.57
2018-11-23T21:00:15.477Z,49.53
2018-11-23T21:02:44.412Z,50.50
2018-11-23T21:05:14.160Z,51.67
2018-11-23T21:07:42.606Z,47.53
2018-11-23T21:10:19.927Z,46.00
2018-11-23T21:12:41.130Z,46.80
2018-11-23T21:15:18.125Z,47.03
2018-11-23T21:17:46.683Z,47.97
2018-11-23T21:20:15.159Z,48.30
2018-11-23T21:22:43.589Z,50.10
2018-11-23T21:25:12.290Z,48.80
2018-11-23T21:27:40.745Z,52.83
2018-11-23T21:30:14.390Z,47.13
2018-11-23T21:32:42.849Z,49.87
2018-11-23T21:35:11.878Z,45.67
2018-11-23T21:37:40.325Z,47.50
2018-11-23T21:40:11.766Z,51.30
2018-11-23T21:42:40.265Z,55.40
2018-11-23T21:45:11.270Z,54.37
2018-11-23T21:47:39.799Z,49.70
2018-11-23T21:50:12.049Z,51.73
2018-11-23T21:52:40.538Z,52.40
2018-11-23T21:55:14.054Z,51.30
2018-11-23T21:57:42.486Z,49.90
2018-11-23T22:00:12.462Z,48.17
2018-11-23T22:02:41.441Z,56.00
2018-11-23T22:05:10.268Z,59.20
2018-11-23T22:07:38.734Z,50.80
2018-11-23T22:10:12.107Z,43.97
2018-11-23T22:12:40.771Z,43.97
2018-11-23T22:15:10.942Z,50.63
2018-11-23T22:17:39.425Z,44.07
2018-11-23T22:20:16.129Z,38.87
2018-11-23T22:22:44.574Z,45.77
2018-11-23T22:25:14.857Z,42.97
2018-11-23T22:27:43.576Z,36.47
2018-11-23T22:30:19.361Z,37.80
2018-11-23T22:32:47.772Z,41.20
2018-11-23T22:35:16.224Z,46.80
2018-11-23T22:37:44.697Z,43.03
2018-11-23T22:40:14.491Z,46.70
2018-11-23T22:42:44.365Z,45.47
2018-11-23T22:45:13.845Z,48.57
2018-11-23T22:47:42.257Z,45.47
2018-11-23T22:50:18.131Z,44.27
2018-11-23T22:52:47.715Z,55.80
2018-11-23T22:55:15.821Z,49.67
2018-11-23T22:57:44.266Z,48.60
2018-11-23T23:00:23.862Z,49.47
2018-11-23T23:02:52.309Z,53.93
2018-11-23T23:05:21.898Z,49.83
2018-11-23T23:07:50.502Z,49.97
2018-11-23T23:10:18.961Z,49.57
2018-11-23T23:12:47.742Z,53.97
2018-11-23T23:15:16.486Z,50.07
2018-11-23T23:17:45.116Z,47.27
2018-11-23T23:20:16.023Z,44.97
2018-11-23T23:22:44.476Z,51.23
2018-11-23T23:25:13.909Z,56.93
2018-11-23T23:27:42.298Z,51.67
2018-11-23T23:30:12.879Z,52.63
2018-11-23T23:32:41.371Z,52.33
2018-11-23T23:35:10.813Z,47.30
2018-11-23T23:37:39.611Z,45.20
2018-11-23T23:40:13.236Z,48.57
2018-11-23T23:42:41.629Z,44.43
2018-11-23T23:45:13.180Z,46.13
2018-11-23T23:47:41.583Z,43.70
2018-11-23T23:50:21.705Z,50.03
2018-11-23T23:52:50.885Z,48.00
2018-11-23T23:55:19.775Z,54.10
2018-11-23T23:57:48.729Z,50.30
